createdAt,value
2022-09-21T00:00:07.325Z,7.10
2022-09-21T00:01:07.339Z,7.07
2022-09-21T00:02:07.383Z,7.13
2022-09-21T00:03:07.356Z,7.12
2022-09-21T00:04:07.472Z,7.15
2022-09-21T00:05:07.375Z,7.15
2022-09-21T00:06:07.381Z,7.15
2022-09-21T00:07:07.397Z,7.07
2022-09-21T00:08:07.402Z,7.16
2022-09-21T00:09:07.414Z,7.07
2022-09-21T00:10:07.423Z,7.16
2022-09-21T00:11:07.564Z,7.10
2022-09-21T00:12:07.446Z,7.16
2022-09-21T00:13:07.455Z,7.07
2022-09-21T00:14:07.469Z,7.16
2022-09-21T00:15:07.477Z,7.13
2022-09-21T00:16:07.726Z,7.15
2022-09-21T00:17:07.496Z,7.16
2022-09-21T00:18:07.508Z,7.16
2022-09-21T00:19:07.521Z,7.09
2022-09-21T00:20:07.531Z,7.13
2022-09-21T00:21:07.540Z,7.13
2022-09-21T00:22:07.600Z,7.13
2022-09-21T00:23:07.562Z,7.15
2022-09-21T00:24:07.569Z,7.09
2022-09-21T00:25:07.586Z,7.10
2022-09-21T00:26:07.591Z,7.21
2022-09-21T00:27:07.673Z,7.10
2022-09-21T00:28:07.615Z,7.21
2022-09-21T00:29:07.625Z,7.07
2022-09-21T00:30:07.634Z,7.10
2022-09-21T00:31:07.645Z,7.07
2022-09-21T00:32:07.706Z,6.98
2022-09-21T00:33:07.665Z,7.05
2022-09-21T00:34:07.767Z,6.98
2022-09-21T00:35:07.686Z,7.05
2022-09-21T00:36:07.695Z,6.99
2022-09-21T00:37:07.706Z,6.99
2022-09-21T00:38:07.719Z,7.02
2022-09-21T00:39:07.727Z,7.02
2022-09-21T00:40:07.829Z,6.95
2022-09-21T00:41:07.745Z,7.03
2022-09-21T00:42:07.756Z,6.95
2022-09-21T00:43:07.806Z,6.85
2022-09-21T00:44:07.880Z,6.80
2022-09-21T00:45:07.787Z,6.76
2022-09-21T00:46:07.867Z,6.79
2022-09-21T00:47:07.812Z,6.70
2022-09-21T00:48:07.821Z,6.67
2022-09-21T00:49:07.831Z,6.67
2022-09-21T00:50:07.838Z,6.71
2022-09-21T00:51:07.852Z,6.76
2022-09-21T00:52:07.877Z,6.77
2022-09-21T00:53:07.870Z,6.77
2022-09-21T00:54:07.881Z,6.76
2022-09-21T00:55:07.897Z,6.77
2022-09-21T00:56:07.901Z,6.59
2022-09-21T00:57:07.912Z,6.70
2022-09-21T00:58:07.926Z,6.64
2022-09-21T00:59:07.961Z,6.69
2022-09-21T01:00:07.945Z,6.70
2022-09-21T01:01:08.061Z,6.67
2022-09-21T01:02:08.009Z,6.52
2022-09-21T01:03:07.978Z,6.61
2022-09-21T01:04:08.058Z,6.64
2022-09-21T01:05:07.995Z,6.61
2022-09-21T01:06:08.002Z,6.66
2022-09-21T01:07:08.010Z,6.58
2022-09-21T01:08:08.024Z,6.66
2022-09-21T01:09:08.034Z,6.61
2022-09-21T01:10:08.040Z,6.44
2022-09-21T01:11:08.054Z,6.48
2022-09-21T01:12:08.061Z,6.37
2022-09-21T01:13:08.072Z,6.25
2022-09-21T01:14:08.110Z,6.27
2022-09-21T01:15:08.117Z,6.17
2022-09-21T01:16:08.152Z,6.14
2022-09-21T01:17:08.109Z,6.06
2022-09-21T01:18:08.120Z,6.06
2022-09-21T01:19:08.235Z,6.00
2022-09-21T01:20:08.141Z,5.97
2022-09-21T01:21:08.153Z,5.99
2022-09-21T01:22:08.161Z,5.90
2022-09-21T01:23:08.171Z,5.90
2022-09-21T01:24:08.184Z,5.76
2022-09-21T01:25:08.191Z,5.81
2022-09-21T01:26:08.200Z,5.82
2022-09-21T01:27:08.208Z,5.79
2022-09-21T01:28:08.222Z,5.72
2022-09-21T01:29:08.227Z,5.71
2022-09-21T01:30:08.237Z,5.74
2022-09-21T01:31:08.335Z,5.78
2022-09-21T01:32:08.260Z,5.79
2022-09-21T01:33:08.266Z,5.83
2022-09-21T01:34:08.414Z,5.90
2022-09-21T01:35:08.284Z,5.93
2022-09-21T01:36:08.304Z,5.99
2022-09-21T01:37:08.307Z,6.01
2022-09-21T01:38:08.313Z,6.03
2022-09-21T01:39:08.324Z,6.03
2022-09-21T01:40:08.360Z,6.08
2022-09-21T01:41:08.346Z,6.15
2022-09-21T01:42:08.365Z,6.21
2022-09-21T01:43:08.368Z,6.21
2022-09-21T01:44:08.384Z,6.21
2022-09-21T01:45:08.382Z,6.14
2022-09-21T01:46:08.487Z,6.19
2022-09-21T01:47:08.545Z,6.21
2022-09-21T01:48:08.409Z,6.21
2022-09-21T01:49:08.464Z,6.21
2022-09-21T01:50:08.424Z,6.18
2022-09-21T01:51:08.437Z,6.09
2022-09-21T01:52:08.450Z,6.15
2022-09-21T01:53:08.460Z,6.15
2022-09-21T01:54:08.466Z,6.15
2022-09-21T01:55:08.473Z,6.12
2022-09-21T01:56:08.487Z,6.09
2022-09-21T01:57:08.495Z,6.04
2022-09-21T01:58:08.501Z,6.08
2022-09-21T01:59:08.516Z,6.06
2022-09-21T02:00:08.521Z,6.06
2022-09-21T02:01:08.596Z,6.06
2022-09-21T02:02:08.595Z,6.06
2022-09-21T02:03:08.577Z,6.01
2022-09-21T02:04:08.635Z,6.03
2022-09-21T02:05:08.571Z,6.03
2022-09-21T02:06:08.579Z,6.08
2022-09-21T02:07:08.587Z,6.09
2022-09-21T02:08:08.606Z,6.03
2022-09-21T02:09:08.613Z,6.08
2022-09-21T02:10:08.616Z,6.17
2022-09-21T02:11:08.627Z,6.04
2022-09-21T02:12:08.657Z,6.06
2022-09-21T02:13:08.647Z,6.04
2022-09-21T02:14:08.651Z,6.03
2022-09-21T02:15:08.677Z,6.01
2022-09-21T02:16:08.856Z,6.03
2022-09-21T02:17:08.694Z,6.03
2022-09-21T02:18:08.693Z,6.08
2022-09-21T02:19:08.727Z,6.01
2022-09-21T02:20:08.716Z,5.97
2022-09-21T02:21:08.723Z,5.94
2022-09-21T02:22:08.730Z,5.99
2022-09-21T02:23:08.740Z,6.03
2022-09-21T02:24:08.753Z,5.99
2022-09-21T02:25:08.760Z,5.93
2022-09-21T02:26:08.842Z,5.99
2022-09-21T02:27:08.780Z,5.99
2022-09-21T02:28:08.789Z,5.99
2022-09-21T02:29:08.802Z,5.90
2022-09-21T02:30:08.805Z,5.99
2022-09-21T02:31:08.854Z,5.93
2022-09-21T02:32:08.823Z,5.99
2022-09-21T02:33:08.841Z,5.91
2022-09-21T02:34:08.853Z,6.03
2022-09-21T02:35:08.878Z,5.97
2022-09-21T02:36:08.866Z,5.96
2022-09-21T02:37:08.875Z,5.91
2022-09-21T02:38:08.884Z,5.97
2022-09-21T02:39:08.898Z,6.04
2022-09-21T02:40:08.941Z,5.99
2022-09-21T02:41:08.914Z,5.94
2022-09-21T02:42:08.921Z,5.90
2022-09-21T02:43:08.929Z,6.00
2022-09-21T02:44:08.941Z,5.86
2022-09-21T02:45:08.949Z,5.89
2022-09-21T02:46:09.019Z,5.97
2022-09-21T02:47:08.968Z,5.94
2022-09-21T02:48:08.978Z,6.00
2022-09-21T02:49:08.986Z,5.91
2022-09-21T02:50:08.998Z,5.94
2022-09-21T02:51:09.028Z,5.94
2022-09-21T02:52:09.027Z,6.00
2022-09-21T02:53:09.026Z,6.03
2022-09-21T02:54:09.035Z,5.96
2022-09-21T02:55:09.042Z,5.93
2022-09-21T02:56:09.053Z,5.85
2022-09-21T02:57:09.066Z,5.89
2022-09-21T02:58:09.073Z,5.85
2022-09-21T02:59:09.082Z,5.89
2022-09-21T03:00:09.092Z,5.90
2022-09-21T03:01:09.144Z,5.86
2022-09-21T03:02:09.181Z,5.91
2022-09-21T03:03:09.117Z,5.85
2022-09-21T03:04:09.131Z,5.89
2022-09-21T03:05:09.137Z,5.90
2022-09-21T03:06:09.159Z,5.97
2022-09-21T03:07:09.181Z,5.91
2022-09-21T03:08:09.174Z,5.86
2022-09-21T03:09:09.180Z,5.79
2022-09-21T03:10:09.189Z,5.81
2022-09-21T03:11:09.196Z,5.83
2022-09-21T03:12:09.204Z,5.79
2022-09-21T03:13:09.212Z,5.75
2022-09-21T03:14:09.221Z,5.78
2022-09-21T03:15:09.232Z,5.71
2022-09-21T03:16:09.278Z,5.64
2022-09-21T03:17:09.251Z,5.65
2022-09-21T03:18:09.263Z,5.65
2022-09-21T03:19:09.267Z,5.75
2022-09-21T03:20:09.283Z,5.63
2022-09-21T03:21:09.289Z,5.64
2022-09-21T03:22:09.355Z,5.64
2022-09-21T03:23:09.386Z,5.75
2022-09-21T03:24:09.312Z,5.68
2022-09-21T03:25:09.328Z,5.71
2022-09-21T03:26:09.335Z,5.67
2022-09-21T03:27:09.353Z,5.61
2022-09-21T03:28:09.351Z,5.67
2022-09-21T03:29:09.360Z,5.63
2022-09-21T03:30:09.369Z,5.54
2022-09-21T03:31:09.436Z,5.53
2022-09-21T03:32:09.387Z,5.49
2022-09-21T03:33:09.400Z,5.46
2022-09-21T03:34:09.407Z,5.51
2022-09-21T03:35:09.419Z,5.51
2022-09-21T03:36:09.425Z,5.57
2022-09-21T03:37:09.533Z,5.53
2022-09-21T03:38:09.440Z,5.60
2022-09-21T03:39:09.525Z,5.61
2022-09-21T03:40:09.523Z,5.61
2022-09-21T03:41:09.468Z,5.63
2022-09-21T03:42:09.483Z,5.61
2022-09-21T03:43:09.489Z,5.57
2022-09-21T03:44:09.499Z,5.61
2022-09-21T03:45:09.510Z,5.61
2022-09-21T03:46:09.608Z,5.64
2022-09-21T03:47:09.530Z,5.57
2022-09-21T03:48:09.538Z,5.63
2022-09-21T03:49:09.558Z,5.57
2022-09-21T03:50:10.328Z,5.57
2022-09-21T03:51:09.563Z,5.60
2022-09-21T03:52:09.581Z,5.63
2022-09-21T03:53:09.579Z,5.58
2022-09-21T03:54:09.585Z,5.63
2022-09-21T03:55:09.706Z,5.57
2022-09-21T03:56:09.626Z,5.61
2022-09-21T03:57:09.615Z,5.63
2022-09-21T03:58:09.629Z,5.56
2022-09-21T03:59:13.920Z,5.65
2022-09-21T04:00:09.644Z,5.60
2022-09-21T04:01:09.836Z,5.57
2022-09-21T04:02:09.662Z,5.51
2022-09-21T04:03:09.673Z,5.56
2022-09-21T04:04:09.682Z,5.63
2022-09-21T04:05:09.688Z,5.65
2022-09-21T04:06:09.700Z,5.63
2022-09-21T04:07:09.703Z,5.64
2022-09-21T04:08:09.715Z,5.65
2022-09-21T04:09:09.730Z,5.65
2022-09-21T04:10:09.729Z,5.67
2022-09-21T04:11:09.852Z,5.63
2022-09-21T04:12:09.752Z,5.67
2022-09-21T04:13:09.774Z,5.63
2022-09-21T04:14:09.771Z,5.60
2022-09-21T04:15:09.780Z,5.54
2022-09-21T04:16:09.898Z,5.56
2022-09-21T04:17:09.798Z,5.48
2022-09-21T04:18:09.808Z,5.57
2022-09-21T04:19:09.818Z,5.54
2022-09-21T04:20:09.824Z,5.54
2022-09-21T04:21:09.835Z,5.54
2022-09-21T04:22:09.846Z,5.49
2022-09-21T04:23:09.863Z,5.54
2022-09-21T04:24:09.863Z,5.53
2022-09-21T04:25:09.877Z,5.54
2022-09-21T04:26:09.876Z,5.46
2022-09-21T04:27:09.964Z,5.45
2022-09-21T04:28:09.895Z,5.51
2022-09-21T04:29:09.908Z,5.38
2022-09-21T04:30:09.924Z,5.49
2022-09-21T04:31:10.038Z,5.43
2022-09-21T04:32:09.931Z,5.38
2022-09-21T04:33:09.941Z,5.42
2022-09-21T04:34:09.950Z,5.40
2022-09-21T04:35:09.959Z,5.40
2022-09-21T04:36:09.966Z,5.46
2022-09-21T04:37:09.981Z,5.42
2022-09-21T04:38:09.991Z,5.42
2022-09-21T04:39:09.993Z,5.43
2022-09-21T04:40:10.138Z,5.36
2022-09-21T04:41:10.011Z,5.36
2022-09-21T04:42:10.023Z,5.36
2022-09-21T04:43:10.058Z,5.45
2022-09-21T04:44:10.039Z,5.43
2022-09-21T04:45:10.050Z,5.33
2022-09-21T04:46:10.085Z,5.42
2022-09-21T04:47:10.066Z,5.35
2022-09-21T04:48:10.082Z,5.42
2022-09-21T04:49:10.085Z,5.39
2022-09-21T04:50:10.092Z,5.33
2022-09-21T04:51:10.153Z,5.40
2022-09-21T04:52:10.111Z,5.33
2022-09-21T04:53:10.120Z,5.38
2022-09-21T04:54:10.129Z,5.38
2022-09-21T04:55:10.147Z,5.42
2022-09-21T04:56:10.151Z,5.39
2022-09-21T04:57:10.159Z,5.38
2022-09-21T04:58:10.167Z,5.43
2022-09-21T04:59:10.201Z,5.36
2022-09-21T05:00:10.181Z,5.46
2022-09-21T05:01:10.245Z,5.45
2022-09-21T05:02:10.198Z,5.40
2022-09-21T05:03:10.208Z,5.36
2022-09-21T05:04:10.218Z,5.31
2022-09-21T05:05:10.230Z,5.40
2022-09-21T05:06:10.237Z,5.33
2022-09-21T05:07:10.252Z,5.30
2022-09-21T05:08:10.264Z,5.28
2022-09-21T05:09:10.265Z,5.36
2022-09-21T05:10:10.283Z,5.27
2022-09-21T05:11:10.282Z,5.22
2022-09-21T05:12:10.309Z,5.28
2022-09-21T05:13:10.302Z,5.25
2022-09-21T05:14:10.309Z,5.25
2022-09-21T05:15:10.338Z,5.21
2022-09-21T05:16:10.373Z,5.27
2022-09-21T05:17:10.334Z,5.13
2022-09-21T05:18:10.340Z,5.17
2022-09-21T05:19:10.360Z,5.15
2022-09-21T05:20:10.359Z,5.09
2022-09-21T05:21:10.369Z,5.17
2022-09-21T05:22:10.377Z,5.10
2022-09-21T05:23:14.795Z,5.06
2022-09-21T05:24:10.398Z,5.04
2022-09-21T05:25:10.405Z,5.10
2022-09-21T05:26:10.411Z,5.17
2022-09-21T05:27:10.418Z,5.20
2022-09-21T05:28:10.431Z,5.25
2022-09-21T05:29:10.438Z,5.24
2022-09-21T05:30:10.449Z,5.25
2022-09-21T05:31:17.568Z,5.27
2022-09-21T05:32:10.468Z,5.27
2022-09-21T05:33:10.483Z,5.33
2022-09-21T05:34:10.481Z,5.38
2022-09-21T05:35:10.491Z,5.28
2022-09-21T05:36:10.503Z,5.27
2022-09-21T05:37:10.513Z,5.31
2022-09-21T05:38:10.516Z,5.30
2022-09-21T05:39:10.527Z,5.24
2022-09-21T05:40:10.605Z,5.24
2022-09-21T05:41:10.543Z,5.28
2022-09-21T05:42:10.552Z,5.30
2022-09-21T05:43:10.562Z,5.33
2022-09-21T05:44:10.572Z,5.36
2022-09-21T05:45:10.588Z,5.36
2022-09-21T05:46:10.657Z,5.30
2022-09-21T05:47:10.626Z,5.31
2022-09-21T05:48:10.605Z,5.35
2022-09-21T05:49:10.617Z,5.35
2022-09-21T05:50:10.724Z,5.33
2022-09-21T05:51:10.629Z,5.35
2022-09-21T05:52:10.637Z,5.45
2022-09-21T05:53:10.658Z,5.38
2022-09-21T05:54:10.660Z,5.39
2022-09-21T05:55:10.672Z,5.38
2022-09-21T05:56:10.679Z,5.42
2022-09-21T05:57:10.684Z,5.39
2022-09-21T05:58:10.690Z,5.39
2022-09-21T05:59:10.704Z,5.35
2022-09-21T06:00:10.708Z,5.45
2022-09-21T06:01:10.748Z,5.39
2022-09-21T06:02:10.734Z,5.42
2022-09-21T06:03:15.522Z,5.43
2022-09-21T06:04:10.749Z,5.38
2022-09-21T06:05:10.757Z,5.38
2022-09-21T06:06:10.765Z,5.38
2022-09-21T06:07:10.771Z,5.42
2022-09-21T06:08:10.787Z,5.54
2022-09-21T06:09:10.792Z,5.51
2022-09-21T06:10:10.816Z,5.48
2022-09-21T06:11:10.804Z,5.56
2022-09-21T06:12:10.820Z,5.48
2022-09-21T06:13:10.825Z,5.46
2022-09-21T06:14:10.834Z,5.51
2022-09-21T06:15:10.842Z,5.49
2022-09-21T06:16:10.849Z,5.51
2022-09-21T06:17:10.863Z,5.57
2022-09-21T06:18:15.540Z,5.57
2022-09-21T06:19:10.915Z,5.57
2022-09-21T06:20:10.890Z,5.56
2022-09-21T06:21:10.898Z,5.60
2022-09-21T06:22:10.921Z,5.64
2022-09-21T06:23:10.912Z,5.60
2022-09-21T06:24:10.924Z,5.65
2022-09-21T06:25:10.930Z,5.60
2022-09-21T06:26:10.939Z,5.65
2022-09-21T06:27:10.949Z,5.65
2022-09-21T06:28:10.954Z,5.60
2022-09-21T06:29:10.974Z,5.65
2022-09-21T06:30:10.974Z,5.64
2022-09-21T06:31:11.017Z,5.63
2022-09-21T06:32:10.993Z,5.63
2022-09-21T06:33:11.004Z,5.61
2022-09-21T06:34:11.008Z,5.63
2022-09-21T06:35:11.074Z,5.57
2022-09-21T06:36:11.030Z,5.60
2022-09-21T06:37:11.042Z,5.57
2022-09-21T06:38:11.047Z,5.60
2022-09-21T06:39:11.054Z,5.64
2022-09-21T06:40:11.097Z,5.63
2022-09-21T06:41:11.071Z,5.53
2022-09-21T06:42:11.088Z,5.74
2022-09-21T06:43:11.093Z,5.65
2022-09-21T06:44:11.100Z,5.63
2022-09-21T06:45:11.116Z,5.71
2022-09-21T06:46:11.265Z,5.82
2022-09-21T06:47:11.126Z,5.83
2022-09-21T06:48:11.140Z,5.85
2022-09-21T06:49:11.147Z,5.94
2022-09-21T06:50:11.154Z,6.03
2022-09-21T06:51:11.238Z,6.09
2022-09-21T06:52:11.170Z,6.09
2022-09-21T06:53:11.186Z,6.06
2022-09-21T06:54:11.195Z,6.21
2022-09-21T06:55:11.311Z,6.21
2022-09-21T06:56:11.207Z,6.38
2022-09-21T06:57:11.216Z,6.44
2022-09-21T06:58:11.223Z,6.49
2022-09-21T06:59:11.231Z,6.56
2022-09-21T07:00:11.245Z,6.69
2022-09-21T07:01:11.410Z,6.67
2022-09-21T07:02:11.368Z,6.79
2022-09-21T07:03:11.268Z,6.74
2022-09-21T07:04:11.283Z,6.85
2022-09-21T07:05:11.287Z,6.98
2022-09-21T07:06:11.297Z,7.10
2022-09-21T07:07:11.336Z,7.12
2022-09-21T07:10:14.735Z,7.20
2022-09-21T07:11:11.346Z,7.12
2022-09-21T07:12:11.352Z,7.23
2022-09-21T07:13:11.367Z,7.28
2022-09-21T07:14:11.377Z,7.32
2022-09-21T07:15:11.379Z,7.28
2022-09-21T07:16:11.464Z,7.31
2022-09-21T07:17:15.650Z,7.25
2022-09-21T07:18:11.409Z,7.31
2022-09-21T07:19:12.107Z,7.40
2022-09-21T07:20:11.429Z,7.50
2022-09-21T07:21:11.447Z,7.46
2022-09-21T07:22:11.451Z,7.46
2022-09-21T07:23:11.547Z,7.53
2022-09-21T07:24:12.615Z,7.55
2022-09-21T07:25:11.476Z,7.55
2022-09-21T07:26:11.481Z,7.61
2022-09-21T07:27:11.490Z,7.61
2022-09-21T07:28:11.506Z,7.61
2022-09-21T07:29:11.509Z,7.72
2022-09-21T07:30:11.519Z,7.75
2022-09-21T07:31:11.533Z,7.68
2022-09-21T07:32:11.540Z,7.55
2022-09-21T07:33:11.595Z,7.57
2022-09-21T07:34:11.554Z,7.79
2022-09-21T07:35:11.564Z,8.00
2022-09-21T07:36:11.572Z,8.00
2022-09-21T07:37:11.583Z,8.02
2022-09-21T07:38:11.597Z,7.90
2022-09-21T07:39:11.624Z,7.83
2022-09-21T07:40:11.660Z,7.71
2022-09-21T07:41:11.619Z,7.71
2022-09-21T07:42:11.630Z,7.72
2022-09-21T07:43:11.642Z,8.00
2022-09-21T07:44:11.646Z,8.25
2022-09-21T07:45:11.679Z,8.40
2022-09-21T07:46:11.672Z,8.41
2022-09-21T07:47:11.686Z,8.48
2022-09-21T07:48:11.693Z,8.58
2022-09-21T07:49:11.702Z,8.63
2022-09-21T07:50:11.709Z,8.48
2022-09-21T07:51:11.718Z,8.40
2022-09-21T07:52:11.727Z,8.36
2022-09-21T07:53:11.735Z,8.40
2022-09-21T07:54:11.745Z,8.50
2022-09-21T07:55:11.790Z,8.63
2022-09-21T07:56:11.764Z,8.74
2022-09-21T07:57:11.772Z,8.79
2022-09-21T07:58:11.783Z,8.66
2022-09-21T07:59:11.794Z,8.61
2022-09-21T08:00:11.812Z,8.47
2022-09-21T08:01:11.871Z,8.66
2022-09-21T08:02:11.864Z,8.71
2022-09-21T08:03:11.839Z,8.53
2022-09-21T08:04:11.844Z,8.48
2022-09-21T08:05:11.850Z,8.45
2022-09-21T08:06:11.862Z,8.44
2022-09-21T08:07:11.869Z,8.45
2022-09-21T08:08:11.885Z,8.48
2022-09-21T08:09:11.891Z,8.81
2022-09-21T08:10:11.903Z,8.81
2022-09-21T08:11:11.934Z,8.96
2022-09-21T08:12:11.917Z,8.71
2022-09-21T08:13:11.932Z,8.76
2022-09-21T08:14:11.984Z,8.77
2022-09-21T08:15:30.729Z,8.80
2022-09-21T08:16:12.046Z,8.92
2022-09-21T08:17:12.071Z,9.10
2022-09-21T08:18:11.980Z,9.20
2022-09-21T08:19:11.990Z,9.33
2022-09-21T08:20:12.000Z,9.68
2022-09-21T08:21:12.290Z,9.79
2022-09-21T08:22:12.025Z,9.96
2022-09-21T08:23:12.033Z,9.75
2022-09-21T08:24:12.042Z,9.61
2022-09-21T08:25:12.052Z,9.50
2022-09-21T08:26:12.060Z,9.36
2022-09-21T08:27:12.214Z,9.29
2022-09-21T08:28:12.081Z,9.42
2022-09-21T08:29:12.092Z,9.42
2022-09-21T08:30:12.102Z,9.39
2022-09-21T08:31:12.177Z,9.53
2022-09-21T08:32:23.001Z,9.87
2022-09-21T08:33:12.134Z,9.97
2022-09-21T08:34:12.142Z,10.01
2022-09-21T08:35:12.152Z,9.76
2022-09-21T08:36:12.165Z,9.75
2022-09-21T08:37:12.178Z,9.81
2022-09-21T08:38:12.186Z,9.79
2022-09-21T08:39:12.199Z,9.79
2022-09-21T08:40:12.274Z,9.66
2022-09-21T08:41:12.216Z,9.53
2022-09-21T08:42:12.226Z,9.64
2022-09-21T08:43:12.260Z,9.60
2022-09-21T08:44:12.256Z,9.74
2022-09-21T08:45:12.258Z,10.18
2022-09-21T08:46:12.312Z,10.60
2022-09-21T08:47:12.278Z,10.60
2022-09-21T08:48:12.337Z,10.42
2022-09-21T08:49:12.302Z,10.34
2022-09-21T08:50:12.313Z,10.63
2022-09-21T08:51:12.320Z,10.63
2022-09-21T08:52:15.479Z,10.44
2022-09-21T08:53:12.347Z,10.41
2022-09-21T08:54:12.360Z,10.94
2022-09-21T08:55:17.373Z,11.35
2022-09-21T08:56:12.377Z,11.21
2022-09-21T08:57:12.386Z,10.97
2022-09-21T08:58:12.416Z,10.94
2022-09-21T08:59:12.434Z,10.88
2022-09-21T09:00:12.423Z,10.94
2022-09-21T09:01:12.525Z,10.97
2022-09-21T09:02:12.489Z,11.07
2022-09-21T09:03:12.451Z,11.09
2022-09-21T09:04:12.469Z,10.86
2022-09-21T09:05:12.484Z,10.47
2022-09-21T09:06:12.492Z,10.51
2022-09-21T09:07:12.501Z,10.22
2022-09-21T09:08:12.513Z,10.25
2022-09-21T09:09:12.524Z,10.41
2022-09-21T09:10:12.534Z,10.82
2022-09-21T09:11:12.547Z,11.04
2022-09-21T09:12:12.558Z,11.03
2022-09-21T09:13:12.567Z,10.63
2022-09-21T09:14:12.580Z,10.74
2022-09-21T09:15:12.614Z,10.66
2022-09-21T09:16:12.699Z,10.33
2022-09-21T09:17:12.616Z,10.36
2022-09-21T09:18:12.624Z,10.68
2022-09-21T09:19:12.638Z,10.85
2022-09-21T09:20:12.649Z,10.78
2022-09-21T09:21:13.925Z,11.11
2022-09-21T09:22:12.678Z,11.14
2022-09-21T09:23:12.684Z,10.99
2022-09-21T09:24:12.692Z,10.67
2022-09-21T09:25:12.706Z,10.52
2022-09-21T09:26:12.717Z,10.51
2022-09-21T09:27:12.727Z,10.84
2022-09-21T09:28:12.740Z,11.15
2022-09-21T09:29:12.756Z,11.43
2022-09-21T09:30:12.764Z,11.54
2022-09-21T09:31:12.873Z,10.99
2022-09-21T09:32:12.791Z,11.36
2022-09-21T09:33:12.800Z,11.65
2022-09-21T09:34:12.816Z,11.95
2022-09-21T09:35:12.829Z,12.04
2022-09-21T09:36:12.838Z,12.29
2022-09-21T09:37:12.861Z,12.59
2022-09-21T09:38:12.867Z,12.46
2022-09-21T09:39:12.893Z,12.70
2022-09-21T09:40:12.969Z,12.79
2022-09-21T09:41:12.901Z,12.54
2022-09-21T09:42:12.909Z,12.45
2022-09-21T09:43:12.923Z,12.60
2022-09-21T09:44:12.945Z,12.37
2022-09-21T09:45:12.949Z,12.23
2022-09-21T09:46:13.643Z,12.56
2022-09-21T09:47:13.052Z,11.94
2022-09-21T09:48:12.983Z,11.64
2022-09-21T09:49:12.997Z,11.61
2022-09-21T09:50:13.008Z,11.75
2022-09-21T09:51:13.021Z,11.79
2022-09-21T09:52:13.033Z,11.79
2022-09-21T09:53:13.051Z,12.01
2022-09-21T09:54:13.065Z,11.95
2022-09-21T09:55:13.076Z,12.46
2022-09-21T09:56:13.089Z,12.71
2022-09-21T09:57:13.097Z,12.45
2022-09-21T09:58:13.110Z,12.01
2022-09-21T09:59:13.124Z,12.32
2022-09-21T10:00:13.141Z,11.95
2022-09-21T10:01:13.164Z,12.32
2022-09-21T10:02:13.254Z,12.54
2022-09-21T10:03:13.201Z,12.85
2022-09-21T10:04:13.256Z,12.24
2022-09-21T10:05:13.199Z,11.85
2022-09-21T10:06:13.213Z,12.17
2022-09-21T10:07:13.237Z,12.23
2022-09-21T10:08:13.241Z,12.27
2022-09-21T10:09:13.257Z,12.64
2022-09-21T10:10:13.266Z,12.38
2022-09-21T10:11:13.282Z,12.13
2022-09-21T10:12:13.301Z,12.52
2022-09-21T10:13:13.315Z,12.42
2022-09-21T10:14:13.328Z,12.05
2022-09-21T10:15:13.334Z,12.38
2022-09-21T10:16:13.413Z,12.46
2022-09-21T10:17:13.357Z,12.16
2022-09-21T10:18:13.380Z,12.52
2022-09-21T10:19:13.409Z,12.28
2022-09-21T10:20:13.401Z,12.47
2022-09-21T10:21:13.414Z,13.08
2022-09-21T10:22:13.426Z,13.38
2022-09-21T10:23:13.444Z,13.41
2022-09-21T10:24:13.452Z,13.28
2022-09-21T10:25:13.466Z,13.39
2022-09-21T10:26:13.477Z,13.30
2022-09-21T10:27:13.499Z,13.12
2022-09-21T10:28:13.501Z,12.68
2022-09-21T10:29:13.533Z,12.74
2022-09-21T10:30:13.537Z,12.59
2022-09-21T10:31:13.671Z,12.53
2022-09-21T10:32:14.784Z,13.14
2022-09-21T10:33:13.573Z,13.26
2022-09-21T10:34:13.592Z,13.11
2022-09-21T10:35:13.627Z,13.32
2022-09-21T10:36:13.610Z,13.28
2022-09-21T10:37:13.635Z,13.64
2022-09-21T10:38:16.265Z,13.14
2022-09-21T10:39:13.655Z,12.64
2022-09-21T10:40:13.739Z,12.92
2022-09-21T10:41:13.679Z,13.14
2022-09-21T10:42:13.695Z,13.30
2022-09-21T10:43:13.710Z,13.57
2022-09-21T10:44:13.725Z,13.73
2022-09-21T10:45:13.739Z,14.06
2022-09-21T10:46:13.819Z,13.64
2022-09-21T10:47:16.620Z,13.28
2022-09-21T10:48:13.780Z,12.65
2022-09-21T10:49:13.804Z,12.97
2022-09-21T10:50:13.816Z,13.45
2022-09-21T10:51:13.862Z,13.81
2022-09-21T10:52:13.831Z,14.70
2022-09-21T10:53:13.849Z,13.91
2022-09-21T10:54:13.860Z,13.85
2022-09-21T10:55:13.878Z,13.75
2022-09-21T10:56:16.424Z,13.96
2022-09-21T10:57:13.914Z,14.04
2022-09-21T10:58:13.917Z,14.27
2022-09-21T10:59:13.928Z,14.33
2022-09-21T11:00:13.944Z,13.49
2022-09-21T11:01:14.080Z,13.97
2022-09-21T11:02:14.032Z,13.95
2022-09-21T11:03:13.984Z,14.29
2022-09-21T11:04:14.001Z,14.10
2022-09-21T11:05:14.017Z,14.22
2022-09-21T11:06:14.027Z,14.21
2022-09-21T11:07:14.073Z,14.25
2022-09-21T11:08:14.061Z,14.35
2022-09-21T11:09:14.078Z,14.83
2022-09-21T11:10:14.091Z,15.17
2022-09-21T11:11:14.099Z,14.96
2022-09-21T11:12:14.115Z,14.20
2022-09-21T11:13:14.130Z,14.24
2022-09-21T11:14:14.140Z,14.92
2022-09-21T11:15:14.157Z,15.51
2022-09-21T11:16:14.274Z,15.57
2022-09-21T11:17:14.184Z,15.46
2022-09-21T11:18:14.198Z,15.60
2022-09-21T11:19:14.215Z,15.28
2022-09-21T11:20:14.226Z,15.06
2022-09-21T11:21:14.244Z,14.70
2022-09-21T11:22:14.258Z,14.28
2022-09-21T11:23:14.304Z,14.68
2022-09-21T11:24:14.286Z,14.69
2022-09-21T11:25:14.304Z,14.43
2022-09-21T11:26:14.316Z,14.40
2022-09-21T11:27:14.384Z,14.78
2022-09-21T11:28:14.350Z,15.16
2022-09-21T11:29:14.379Z,15.13
2022-09-21T11:30:14.384Z,15.01
2022-09-21T11:31:14.554Z,15.17
2022-09-21T11:32:14.412Z,15.20
2022-09-21T11:33:14.426Z,15.69
2022-09-21T11:34:14.438Z,14.92
2022-09-21T11:35:14.454Z,15.23
2022-09-21T11:36:14.472Z,14.89
2022-09-21T11:37:14.487Z,15.17
2022-09-21T11:38:14.498Z,15.06
2022-09-21T11:39:14.541Z,15.49
2022-09-21T11:40:14.575Z,15.53
2022-09-21T11:41:14.546Z,15.59
2022-09-21T11:42:14.564Z,15.59
2022-09-21T11:43:14.579Z,15.89
2022-09-21T11:44:18.475Z,16.20
2022-09-21T11:45:14.611Z,16.41
2022-09-21T11:46:14.663Z,15.31
2022-09-21T11:47:14.642Z,15.80
2022-09-21T11:48:14.653Z,15.69
2022-09-21T11:49:14.674Z,15.43
2022-09-21T11:50:29.838Z,15.69
2022-09-21T11:51:14.706Z,16.08
2022-09-21T11:52:14.819Z,16.04
2022-09-21T11:53:14.737Z,16.21
2022-09-21T11:54:14.751Z,16.25
2022-09-21T11:55:14.795Z,16.60
2022-09-21T11:56:14.785Z,17.03
2022-09-21T11:57:14.799Z,16.33
2022-09-21T11:58:14.821Z,16.45
2022-09-21T11:59:14.853Z,16.79
2022-09-21T12:00:14.850Z,17.11
2022-09-21T12:01:14.868Z,17.30
2022-09-21T12:02:15.066Z,16.86
2022-09-21T12:03:14.897Z,17.22
2022-09-21T12:04:14.909Z,17.25
2022-09-21T12:05:14.933Z,17.54
2022-09-21T12:06:14.948Z,17.75
2022-09-21T12:07:14.963Z,17.92
2022-09-21T12:08:14.986Z,18.17
2022-09-21T12:09:14.994Z,18.27
2022-09-21T12:10:15.076Z,17.93
2022-09-21T12:11:15.051Z,17.90
2022-09-21T12:12:15.052Z,17.96
2022-09-21T12:13:15.064Z,17.78
2022-09-21T12:14:15.086Z,17.62
2022-09-21T12:15:15.152Z,17.97
2022-09-21T12:16:15.164Z,18.32
2022-09-21T12:17:15.133Z,18.67
2022-09-21T12:18:15.145Z,18.81
2022-09-21T12:19:15.164Z,18.78
2022-09-21T12:20:15.206Z,18.82
2022-09-21T12:21:15.199Z,18.54
2022-09-21T12:22:15.218Z,18.30
2022-09-21T12:23:15.232Z,18.12
2022-09-21T12:24:15.352Z,18.27
2022-09-21T12:25:15.267Z,18.45
2022-09-21T12:26:15.288Z,18.20
2022-09-21T12:27:15.327Z,18.37
2022-09-21T12:28:15.328Z,17.99
2022-09-21T12:29:15.344Z,17.90
2022-09-21T12:30:15.444Z,18.18
2022-09-21T12:31:15.425Z,18.41
2022-09-21T12:32:15.399Z,17.87
2022-09-21T12:33:15.409Z,16.97
2022-09-21T12:34:15.436Z,17.23
2022-09-21T12:35:15.444Z,16.98
2022-09-21T12:36:15.467Z,16.41
2022-09-21T12:37:15.486Z,16.82
2022-09-21T12:38:15.500Z,16.98
2022-09-21T12:39:15.521Z,17.56
2022-09-21T12:40:15.731Z,17.40
2022-09-21T12:41:15.553Z,17.95
2022-09-21T12:42:15.573Z,17.92
2022-09-21T12:43:15.613Z,18.05
2022-09-21T12:44:15.610Z,18.25
2022-09-21T12:45:15.637Z,18.15
2022-09-21T12:46:15.670Z,18.32
2022-09-21T12:47:15.660Z,18.35
2022-09-21T12:48:15.677Z,18.52
2022-09-21T12:49:15.702Z,18.41
2022-09-21T12:50:15.711Z,18.69
2022-09-21T12:51:15.731Z,18.03
2022-09-21T12:52:15.756Z,18.33
2022-09-21T12:53:15.766Z,18.45
2022-09-21T12:54:15.784Z,19.07
2022-09-21T12:55:17.421Z,19.21
2022-09-21T12:56:15.821Z,19.21
2022-09-21T12:57:38.286Z,19.28
2022-09-21T12:58:16.586Z,19.11
2022-09-21T12:59:15.972Z,19.37
2022-09-21T13:00:15.896Z,19.87
2022-09-21T13:01:16.238Z,19.26
2022-09-21T13:02:16.188Z,19.58
2022-09-21T13:03:16.001Z,19.92
2022-09-21T13:04:15.968Z,20.03
2022-09-21T13:05:15.988Z,19.23
2022-09-21T13:06:16.003Z,18.54
2022-09-21T13:07:16.025Z,19.25
2022-09-21T13:08:16.041Z,19.48
2022-09-21T13:09:16.063Z,19.19
2022-09-21T13:10:16.079Z,19.47
2022-09-21T13:11:16.111Z,19.78